createdAt,value
2019-03-17T00:00:25.215Z,17.38
2019-03-17T00:01:25.217Z,17.57
2019-03-17T00:02:25.222Z,17.18
2019-03-17T00:03:25.224Z,17.28
2019-03-17T00:04:31.320Z,17.18
2019-03-17T00:05:25.234Z,17.08
2019-03-17T00:06:25.275Z,17.18
2019-03-17T00:07:25.236Z,17.18
2019-03-17T00:08:25.238Z,17.18
2019-03-17T00:09:25.241Z,17.18
2019-03-17T00:10:25.243Z,17.28
2019-03-17T00:11:25.246Z,17.18
2019-03-17T00:12:25.249Z,16.99
2019-03-17T00:13:25.323Z,16.89
2019-03-17T00:14:25.254Z,16.69
2019-03-17T00:15:25.257Z,16.69
2019-03-17T00:16:25.263Z,16.69
2019-03-17T00:17:25.298Z,16.79
2019-03-17T00:18:25.279Z,16.89
2019-03-17T00:19:27.491Z,16.89
2019-03-17T00:20:25.273Z,16.99
2019-03-17T00:21:25.274Z,16.99
2019-03-17T00:22:25.277Z,16.69
2019-03-17T00:23:25.280Z,16.69
2019-03-17T00:24:25.283Z,16.50
2019-03-17T00:25:25.285Z,16.69
2019-03-17T00:26:25.289Z,16.69
2019-03-17T00:27:25.292Z,16.60
2019-03-17T00:28:25.303Z,16.59
2019-03-17T00:29:25.296Z,16.41
2019-03-17T00:30:25.299Z,16.39
2019-03-17T00:31:25.301Z,16.41
2019-03-17T00:32:25.304Z,16.31
2019-03-17T00:33:25.307Z,16.31
2019-03-17T00:34:25.311Z,16.39
2019-03-17T00:35:25.318Z,16.31
2019-03-17T00:36:25.318Z,16.31
2019-03-17T00:37:25.319Z,16.41
2019-03-17T00:38:25.322Z,16.30
2019-03-17T00:39:25.324Z,16.31
2019-03-17T00:40:25.328Z,16.41
2019-03-17T00:41:25.329Z,16.39
2019-03-17T00:42:25.333Z,16.31
2019-03-17T00:43:25.336Z,16.39
2019-03-17T00:44:25.339Z,16.30
2019-03-17T00:45:25.340Z,16.39
2019-03-17T00:46:25.344Z,16.39
2019-03-17T00:47:25.349Z,16.41
2019-03-17T00:48:25.352Z,16.41
2019-03-17T00:49:25.351Z,16.41
2019-03-17T00:50:25.355Z,16.31
2019-03-17T00:51:25.359Z,16.31
2019-03-17T00:52:25.359Z,16.31
2019-03-17T00:53:25.371Z,16.39
2019-03-17T00:54:25.380Z,16.31
2019-03-17T00:55:25.369Z,16.41
2019-03-17T00:56:25.372Z,16.31
2019-03-17T00:57:25.374Z,16.39
2019-03-17T00:58:25.376Z,16.41
2019-03-17T00:59:25.380Z,16.31
2019-03-17T01:00:25.387Z,16.59
2019-03-17T01:01:25.388Z,16.41
2019-03-17T01:02:25.390Z,16.30
2019-03-17T01:03:25.392Z,16.49
2019-03-17T01:04:25.412Z,16.49
2019-03-17T01:05:25.454Z,16.49
2019-03-17T01:06:25.398Z,16.49
2019-03-17T01:07:25.403Z,16.49
2019-03-17T01:08:25.406Z,16.49
2019-03-17T01:09:25.414Z,16.69
2019-03-17T01:10:25.411Z,16.39
2019-03-17T01:11:25.411Z,16.49
2019-03-17T01:12:25.420Z,16.69
2019-03-17T01:13:25.418Z,16.49
2019-03-17T01:14:25.420Z,16.50
2019-03-17T01:15:25.424Z,16.59
2019-03-17T01:16:25.427Z,16.49
2019-03-17T01:17:25.429Z,16.50
2019-03-17T01:18:25.431Z,16.39
2019-03-17T01:19:25.436Z,16.69
2019-03-17T01:20:25.440Z,16.69
2019-03-17T01:21:25.439Z,16.69
2019-03-17T01:22:25.443Z,16.78
2019-03-17T01:23:25.446Z,16.69
2019-03-17T01:24:25.488Z,16.69
2019-03-17T01:25:25.451Z,16.69
2019-03-17T01:26:25.453Z,16.69
2019-03-17T01:27:25.457Z,16.69
2019-03-17T01:28:25.464Z,16.69
2019-03-17T01:29:25.487Z,16.59
2019-03-17T01:30:25.468Z,16.69
2019-03-17T01:31:25.468Z,16.59
2019-03-17T01:32:25.471Z,16.69
2019-03-17T01:33:25.475Z,16.78
2019-03-17T01:34:25.477Z,16.69
2019-03-17T01:35:25.480Z,16.98
2019-03-17T01:36:25.482Z,16.69
2019-03-17T01:37:25.492Z,16.99
2019-03-17T01:38:25.487Z,16.88
2019-03-17T01:39:25.489Z,16.98
2019-03-17T01:40:25.493Z,16.78
2019-03-17T01:41:25.494Z,16.98
2019-03-17T01:42:25.488Z,16.98
2019-03-17T01:43:25.502Z,16.88
2019-03-17T01:44:25.504Z,16.98
2019-03-17T01:45:25.508Z,16.89
2019-03-17T01:46:25.507Z,16.98
2019-03-17T01:47:27.704Z,16.88
2019-03-17T01:48:25.516Z,16.98
2019-03-17T01:49:25.518Z,16.99
2019-03-17T01:50:25.520Z,16.98
2019-03-17T01:51:25.523Z,17.08
2019-03-17T01:52:25.526Z,16.99
2019-03-17T01:53:25.532Z,16.88
2019-03-17T01:54:25.531Z,16.88
2019-03-17T01:55:25.534Z,16.88
2019-03-17T01:56:25.536Z,16.88
2019-03-17T01:57:25.539Z,16.89
2019-03-17T01:58:25.542Z,16.78
2019-03-17T01:59:25.575Z,16.78
2019-03-17T02:00:25.548Z,16.88
2019-03-17T02:01:25.555Z,16.78
2019-03-17T02:02:25.553Z,16.78
2019-03-17T02:03:25.555Z,16.78
2019-03-17T02:04:25.559Z,16.88
2019-03-17T02:05:25.561Z,16.78
2019-03-17T02:06:25.564Z,16.88
2019-03-17T02:07:25.567Z,16.88
2019-03-17T02:08:25.570Z,16.78
2019-03-17T02:09:25.572Z,16.78
2019-03-17T02:10:25.578Z,16.88
2019-03-17T02:11:25.585Z,16.88
2019-03-17T02:12:25.580Z,16.79
2019-03-17T02:13:25.583Z,16.78
2019-03-17T02:14:25.585Z,16.78
2019-03-17T02:15:25.590Z,16.69
2019-03-17T02:16:25.592Z,16.78
2019-03-17T02:17:25.594Z,16.69
2019-03-17T02:18:25.598Z,16.78
2019-03-17T02:19:25.601Z,16.69
2019-03-17T02:20:25.607Z,16.78
2019-03-17T02:21:25.604Z,16.78
2019-03-17T02:22:25.609Z,16.69
2019-03-17T02:23:25.612Z,16.69
2019-03-17T02:24:25.614Z,16.69
2019-03-17T02:25:25.617Z,16.78
2019-03-17T02:26:25.622Z,16.78
2019-03-17T02:27:25.683Z,16.59
2019-03-17T02:28:25.627Z,16.69
2019-03-17T02:29:25.644Z,16.69
2019-03-17T02:30:25.630Z,16.69
2019-03-17T02:31:25.636Z,16.69
2019-03-17T02:32:25.638Z,16.69
2019-03-17T02:33:25.643Z,16.69
2019-03-17T02:34:25.643Z,16.69
2019-03-17T02:35:37.676Z,16.88
2019-03-17T02:36:25.647Z,16.69
2019-03-17T02:37:25.650Z,16.88
2019-03-17T02:38:25.656Z,16.78
2019-03-17T02:39:26.370Z,16.78
2019-03-17T02:40:25.658Z,16.88
2019-03-17T02:41:25.662Z,16.88
2019-03-17T02:42:25.666Z,16.88
2019-03-17T02:43:25.667Z,16.98
2019-03-17T02:44:25.668Z,16.88
2019-03-17T02:45:25.673Z,16.98
2019-03-17T02:46:25.676Z,16.98
2019-03-17T02:47:25.677Z,16.88
2019-03-17T02:48:25.680Z,16.98
2019-03-17T02:49:25.680Z,16.98
2019-03-17T02:50:25.685Z,16.98
2019-03-17T02:51:25.690Z,16.78
2019-03-17T02:52:25.721Z,16.99
2019-03-17T02:53:25.693Z,16.98
2019-03-17T02:54:25.702Z,16.88
2019-03-17T02:55:25.716Z,16.99
2019-03-17T02:56:25.702Z,16.88
2019-03-17T02:57:25.703Z,17.08
2019-03-17T02:58:25.707Z,16.98
2019-03-17T02:59:25.709Z,16.98
2019-03-17T03:00:25.722Z,16.98
2019-03-17T03:01:25.720Z,16.88
2019-03-17T03:02:25.725Z,16.88
2019-03-17T03:03:25.726Z,16.88
2019-03-17T03:04:25.729Z,16.88
2019-03-17T03:05:25.728Z,16.78
2019-03-17T03:06:25.728Z,16.88
2019-03-17T03:07:25.731Z,16.88
2019-03-17T03:08:25.735Z,16.98
2019-03-17T03:09:25.742Z,16.99
2019-03-17T03:10:25.740Z,16.88
2019-03-17T03:11:25.743Z,16.98
2019-03-17T03:12:25.747Z,16.88
2019-03-17T03:13:25.748Z,16.98
2019-03-17T03:14:25.750Z,16.99
2019-03-17T03:15:25.755Z,17.08
2019-03-17T03:16:25.764Z,16.88
2019-03-17T03:17:25.769Z,16.88
2019-03-17T03:18:25.761Z,16.98
2019-03-17T03:19:25.765Z,16.99
2019-03-17T03:20:25.768Z,16.78
2019-03-17T03:21:25.772Z,16.89
2019-03-17T03:22:25.771Z,16.88
2019-03-17T03:23:25.781Z,16.88
2019-03-17T03:24:25.778Z,16.98
2019-03-17T03:25:25.791Z,16.98
2019-03-17T03:26:25.781Z,16.88
2019-03-17T03:27:25.786Z,16.88
2019-03-17T03:28:25.802Z,16.98
2019-03-17T03:29:27.317Z,16.88
2019-03-17T03:30:25.801Z,16.88
2019-03-17T03:31:25.806Z,16.88
2019-03-17T03:32:25.806Z,16.98
2019-03-17T03:33:25.813Z,16.88
2019-03-17T03:34:25.898Z,16.88
2019-03-17T03:35:25.821Z,16.78
2019-03-17T03:36:25.811Z,16.78
2019-03-17T03:37:25.815Z,16.69
2019-03-17T03:38:25.820Z,16.78
2019-03-17T03:39:25.820Z,16.88
2019-03-17T03:40:25.822Z,16.69
2019-03-17T03:41:25.825Z,16.78
2019-03-17T03:42:25.826Z,16.88
2019-03-17T03:43:25.829Z,16.98
2019-03-17T03:44:25.835Z,16.88
2019-03-17T03:45:25.841Z,16.98
2019-03-17T03:46:25.842Z,16.79
2019-03-17T03:47:25.841Z,16.98
2019-03-17T03:48:25.847Z,16.78
2019-03-17T03:49:25.861Z,16.88
2019-03-17T03:50:25.848Z,16.88
2019-03-17T03:51:25.855Z,16.89
2019-03-17T03:52:25.854Z,16.88
2019-03-17T03:53:25.858Z,16.89
2019-03-17T03:54:25.861Z,16.78
2019-03-17T03:55:25.862Z,16.88
2019-03-17T03:56:25.865Z,16.98
2019-03-17T03:57:25.869Z,16.88
2019-03-17T03:58:25.870Z,16.98
2019-03-17T03:59:25.880Z,16.88
2019-03-17T04:00:25.877Z,16.88
2019-03-17T04:01:25.879Z,16.88
2019-03-17T04:02:25.881Z,16.88
2019-03-17T04:03:25.883Z,16.98
2019-03-17T04:04:25.888Z,16.88
2019-03-17T04:05:25.890Z,16.78
2019-03-17T04:06:27.177Z,16.88
2019-03-17T04:07:25.895Z,16.88
2019-03-17T04:08:25.906Z,17.08
2019-03-17T04:09:25.902Z,16.88
2019-03-17T04:10:25.905Z,16.88
2019-03-17T04:11:25.906Z,16.88
2019-03-17T04:12:25.917Z,16.98
2019-03-17T04:13:25.912Z,17.08
2019-03-17T04:14:25.956Z,16.88
2019-03-17T04:15:25.916Z,17.08
2019-03-17T04:16:25.920Z,17.08
2019-03-17T04:17:25.922Z,16.98
2019-03-17T04:18:25.922Z,17.08
2019-03-17T04:19:25.929Z,16.98
2019-03-17T04:20:25.987Z,16.78
2019-03-17T04:21:25.937Z,17.08
2019-03-17T04:22:25.937Z,16.98
2019-03-17T04:23:25.940Z,16.98
2019-03-17T04:24:25.942Z,16.98
2019-03-17T04:25:25.946Z,16.98
2019-03-17T04:26:25.955Z,16.98
2019-03-17T04:27:25.951Z,16.98
2019-03-17T04:28:25.952Z,17.08
2019-03-17T04:29:25.957Z,16.98
2019-03-17T04:30:25.961Z,17.08
2019-03-17T04:31:25.960Z,16.88
2019-03-17T04:32:25.963Z,16.89
2019-03-17T04:33:25.968Z,16.88
2019-03-17T04:34:25.968Z,17.08
2019-03-17T04:35:25.972Z,16.88
2019-03-17T04:36:39.160Z,16.98
2019-03-17T04:37:25.982Z,17.08
2019-03-17T04:38:25.980Z,17.08
2019-03-17T04:39:25.981Z,16.98
2019-03-17T04:40:25.986Z,17.08
2019-03-17T04:41:25.986Z,16.98
2019-03-17T04:42:25.993Z,17.08
2019-03-17T04:43:25.992Z,17.18
2019-03-17T04:44:25.996Z,17.18
2019-03-17T04:45:25.997Z,17.08
2019-03-17T04:46:26.000Z,17.08
2019-03-17T04:47:26.006Z,17.18
2019-03-17T04:48:26.007Z,16.98
2019-03-17T04:49:26.009Z,17.08
2019-03-17T04:50:26.016Z,16.98
2019-03-17T04:51:26.014Z,16.88
2019-03-17T04:52:26.018Z,16.88
2019-03-17T04:53:26.084Z,16.78
2019-03-17T04:54:26.023Z,16.98
2019-03-17T04:55:26.025Z,16.88
2019-03-17T04:56:26.028Z,16.69
2019-03-17T04:57:26.031Z,16.69
2019-03-17T04:58:26.033Z,16.69
2019-03-17T04:59:26.036Z,16.59
2019-03-17T05:00:26.041Z,16.78
2019-03-17T05:01:26.041Z,16.78
2019-03-17T05:02:26.044Z,16.69
2019-03-17T05:03:26.047Z,16.69
2019-03-17T05:04:26.051Z,16.78
2019-03-17T05:05:26.050Z,16.88
2019-03-17T05:06:26.055Z,16.88
2019-03-17T05:07:26.058Z,16.78
2019-03-17T05:08:26.060Z,16.78
2019-03-17T05:09:26.062Z,16.69
2019-03-17T05:10:26.065Z,16.78
2019-03-17T05:11:26.070Z,16.88
2019-03-17T05:12:26.072Z,16.88
2019-03-17T05:13:26.076Z,16.88
2019-03-17T05:14:26.077Z,16.79
2019-03-17T05:15:26.079Z,16.89
2019-03-17T05:16:26.082Z,16.88
2019-03-17T05:17:26.084Z,16.78
2019-03-17T05:18:26.091Z,16.98
2019-03-17T05:19:26.089Z,16.98
2019-03-17T05:20:26.094Z,16.88
2019-03-17T05:21:26.106Z,16.78
2019-03-17T05:22:26.099Z,16.88
2019-03-17T05:23:26.101Z,16.88
2019-03-17T05:24:26.108Z,16.78
2019-03-17T05:25:26.109Z,16.88
2019-03-17T05:26:26.109Z,16.88
2019-03-17T05:27:26.117Z,16.88
2019-03-17T05:28:26.115Z,16.88
2019-03-17T05:29:26.116Z,16.98
2019-03-17T05:30:26.120Z,16.88
2019-03-17T05:31:26.125Z,16.88
2019-03-17T05:32:26.128Z,16.98
2019-03-17T05:33:26.167Z,16.88
2019-03-17T05:34:26.132Z,16.88
2019-03-17T05:35:26.134Z,16.89
2019-03-17T05:36:26.137Z,16.98
2019-03-17T05:37:26.139Z,16.99
2019-03-17T05:38:26.143Z,16.88
2019-03-17T05:39:26.145Z,16.59
2019-03-17T05:40:26.149Z,16.88
2019-03-17T05:41:26.150Z,16.98
2019-03-17T05:42:26.160Z,16.69
2019-03-17T05:43:26.155Z,16.69
2019-03-17T05:44:26.158Z,16.59
2019-03-17T05:45:26.160Z,16.60
2019-03-17T05:46:26.163Z,16.59
2019-03-17T05:47:26.169Z,16.69
2019-03-17T05:48:26.171Z,16.69
2019-03-17T05:49:26.171Z,16.60
2019-03-17T05:50:26.178Z,16.59
2019-03-17T05:51:26.175Z,16.99
2019-03-17T05:52:26.185Z,16.60
2019-03-17T05:53:26.187Z,16.88
2019-03-17T05:54:26.194Z,16.78
2019-03-17T05:55:26.195Z,16.59
2019-03-17T05:56:26.193Z,16.69
2019-03-17T05:57:26.194Z,16.59
2019-03-17T05:58:26.196Z,16.60
2019-03-17T05:59:26.199Z,16.69
2019-03-17T06:00:26.208Z,16.89
2019-03-17T06:01:26.218Z,16.69
2019-03-17T06:02:26.208Z,16.59
2019-03-17T06:03:26.211Z,16.60
2019-03-17T06:04:26.213Z,16.69
2019-03-17T06:05:26.217Z,16.99
2019-03-17T06:06:26.219Z,16.79
2019-03-17T06:07:26.221Z,16.59
2019-03-17T06:08:26.223Z,16.98
2019-03-17T06:09:26.224Z,16.69
2019-03-17T06:10:26.230Z,16.69
2019-03-17T06:11:26.232Z,16.99
2019-03-17T06:12:26.236Z,16.98
2019-03-17T06:13:26.242Z,16.88
2019-03-17T06:14:26.246Z,16.59
2019-03-17T06:15:26.243Z,16.59
2019-03-17T06:16:26.262Z,16.59
2019-03-17T06:17:26.250Z,16.60
2019-03-17T06:18:26.250Z,16.59
2019-03-17T06:19:26.254Z,16.88
2019-03-17T06:20:26.256Z,16.88
2019-03-17T06:21:26.257Z,16.69
2019-03-17T06:22:26.263Z,16.59
2019-03-17T06:23:26.269Z,16.69
2019-03-17T06:24:26.269Z,16.59
2019-03-17T06:25:26.273Z,16.60
2019-03-17T06:26:26.272Z,16.69
2019-03-17T06:27:26.278Z,16.69
2019-03-17T06:28:26.278Z,16.78
2019-03-17T06:29:26.283Z,16.60
2019-03-17T06:30:26.283Z,16.59
2019-03-17T06:31:26.287Z,16.69
2019-03-17T06:32:26.289Z,16.69
2019-03-17T06:33:26.292Z,16.69
2019-03-17T06:34:26.295Z,16.60
2019-03-17T06:35:26.300Z,16.69
2019-03-17T06:36:26.301Z,16.69
2019-03-17T06:37:30.910Z,16.69
2019-03-17T06:38:26.305Z,16.69
2019-03-17T06:39:26.308Z,16.69
2019-03-17T06:40:26.312Z,16.69
2019-03-17T06:41:26.314Z,16.69
2019-03-17T06:42:26.316Z,16.69
2019-03-17T06:43:26.322Z,16.69
2019-03-17T06:44:26.325Z,16.60
2019-03-17T06:45:26.328Z,16.60
2019-03-17T06:46:26.327Z,16.60
2019-03-17T06:47:26.330Z,16.69
2019-03-17T06:48:26.333Z,16.69
2019-03-17T06:49:26.335Z,16.69
2019-03-17T06:50:26.349Z,16.69
2019-03-17T06:51:26.344Z,16.69
2019-03-17T06:52:26.344Z,16.69
2019-03-17T06:53:26.347Z,16.59
2019-03-17T06:54:26.350Z,16.69
2019-03-17T06:55:26.352Z,16.69
2019-03-17T06:56:26.355Z,16.69
2019-03-17T06:57:26.357Z,16.79
2019-03-17T06:58:26.360Z,16.69
2019-03-17T06:59:26.445Z,16.78
2019-03-17T07:00:26.366Z,16.79
2019-03-17T07:01:26.367Z,16.69
2019-03-17T07:02:26.371Z,16.69
2019-03-17T07:03:26.375Z,16.79
2019-03-17T07:04:26.379Z,16.69
2019-03-17T07:05:26.379Z,16.69
2019-03-17T07:06:26.382Z,16.69
2019-03-17T07:07:26.385Z,16.69
2019-03-17T07:08:26.391Z,16.69
2019-03-17T07:09:26.391Z,16.69
2019-03-17T07:10:26.394Z,16.69
2019-03-17T07:11:26.399Z,16.79
2019-03-17T07:12:26.403Z,16.79
2019-03-17T07:13:26.410Z,16.69
2019-03-17T07:14:26.404Z,16.69
2019-03-17T07:15:26.410Z,16.69
2019-03-17T07:16:26.411Z,16.69
2019-03-17T07:17:26.412Z,16.79
2019-03-17T07:18:26.418Z,16.69
2019-03-17T07:19:26.425Z,16.59
2019-03-17T07:20:26.426Z,16.69
2019-03-17T07:21:26.426Z,16.69
2019-03-17T07:22:26.431Z,16.69
2019-03-17T07:23:26.433Z,16.78
2019-03-17T07:24:26.434Z,16.69
2019-03-17T07:25:26.501Z,16.69
2019-03-17T07:26:26.437Z,16.69
2019-03-17T07:27:26.457Z,16.69
2019-03-17T07:28:26.445Z,16.60
2019-03-17T07:29:26.445Z,16.69
2019-03-17T07:30:26.448Z,16.69
2019-03-17T07:31:26.451Z,16.79
2019-03-17T07:32:26.454Z,16.69
2019-03-17T07:33:26.456Z,16.69
2019-03-17T07:34:26.460Z,16.60
2019-03-17T07:35:26.463Z,16.69
2019-03-17T07:36:26.465Z,16.69
2019-03-17T07:37:26.468Z,16.69
2019-03-17T07:38:26.473Z,16.89
2019-03-17T07:39:26.474Z,16.69
2019-03-17T07:40:26.480Z,16.69
2019-03-17T07:41:26.488Z,16.69
2019-03-17T07:42:26.482Z,16.50
2019-03-17T07:43:26.484Z,16.89
2019-03-17T07:44:26.491Z,17.08
2019-03-17T07:45:26.491Z,16.89
2019-03-17T07:46:26.492Z,16.88
2019-03-17T07:47:26.497Z,16.89
2019-03-17T07:48:26.498Z,16.99
2019-03-17T07:49:26.502Z,16.88
2019-03-17T07:50:26.503Z,16.89
2019-03-17T07:51:26.506Z,16.79
2019-03-17T07:52:26.511Z,16.99
2019-03-17T07:53:26.512Z,16.79
2019-03-17T07:54:26.514Z,16.89
2019-03-17T07:55:26.517Z,16.89
2019-03-17T07:56:26.531Z,16.99
2019-03-17T07:57:26.532Z,16.99
2019-03-17T07:58:26.525Z,16.79
2019-03-17T07:59:26.529Z,16.89
2019-03-17T08:00:31.704Z,16.79
2019-03-17T08:01:26.533Z,16.89
2019-03-17T08:02:26.537Z,16.89
2019-03-17T08:03:26.553Z,16.79
2019-03-17T08:04:26.541Z,16.79
2019-03-17T08:05:26.546Z,16.89
2019-03-17T08:06:26.547Z,16.89
2019-03-17T08:07:26.551Z,16.79
2019-03-17T08:08:26.652Z,16.79
2019-03-17T08:09:26.563Z,16.69
2019-03-17T08:10:26.562Z,16.69
2019-03-17T08:11:26.561Z,16.79
2019-03-17T08:12:26.564Z,16.79
2019-03-17T08:13:26.566Z,16.69
2019-03-17T08:14:26.578Z,16.79
2019-03-17T08:15:26.572Z,16.79
2019-03-17T08:16:26.578Z,16.79
2019-03-17T08:17:26.577Z,16.78
2019-03-17T08:18:26.581Z,16.60
2019-03-17T08:19:26.585Z,16.69
2019-03-17T08:20:26.605Z,16.60
2019-03-17T08:21:26.594Z,16.69
2019-03-17T08:22:26.593Z,16.60
2019-03-17T08:23:26.595Z,16.69
2019-03-17T08:24:26.597Z,16.79
2019-03-17T08:25:26.600Z,16.79
2019-03-17T08:26:26.601Z,16.89
2019-03-17T08:27:26.605Z,16.89
2019-03-17T08:28:26.613Z,16.79
2019-03-17T08:29:26.615Z,16.69
2019-03-17T08:30:26.614Z,16.89
2019-03-17T08:31:26.618Z,16.89
2019-03-17T08:32:26.620Z,16.89
2019-03-17T08:33:26.621Z,16.99
2019-03-17T08:34:26.624Z,16.89
2019-03-17T08:35:26.627Z,16.89
2019-03-17T08:36:26.648Z,16.99
2019-03-17T08:37:26.639Z,16.99
2019-03-17T08:38:26.635Z,16.99
2019-03-17T08:39:26.645Z,16.99
2019-03-17T08:40:26.641Z,16.89
2019-03-17T08:41:26.643Z,16.99
2019-03-17T08:42:26.666Z,16.99
2019-03-17T08:43:26.655Z,17.18
2019-03-17T08:44:26.652Z,17.08
2019-03-17T08:45:26.654Z,17.18
2019-03-17T08:46:26.657Z,17.18
2019-03-17T08:47:26.661Z,17.18
2019-03-17T08:48:26.665Z,17.18
2019-03-17T08:49:26.666Z,17.28
2019-03-17T08:50:26.672Z,17.18
2019-03-17T08:51:26.818Z,17.18
2019-03-17T08:52:26.674Z,17.18
2019-03-17T08:53:26.677Z,17.18
2019-03-17T08:54:26.679Z,17.18
2019-03-17T08:55:26.683Z,17.18
2019-03-17T08:56:26.684Z,17.28
2019-03-17T08:57:26.689Z,17.18
2019-03-17T08:58:26.690Z,17.18
2019-03-17T08:59:26.693Z,17.18
2019-03-17T09:00:26.696Z,17.18
2019-03-17T09:01:26.702Z,17.18
2019-03-17T09:02:26.701Z,17.18
2019-03-17T09:03:26.715Z,17.18
2019-03-17T09:04:26.708Z,17.18
2019-03-17T09:05:26.709Z,17.18
2019-03-17T09:06:26.713Z,17.18
2019-03-17T09:07:27.935Z,17.18
2019-03-17T09:08:35.011Z,17.28
2019-03-17T09:09:26.721Z,17.28
2019-03-17T09:10:26.724Z,17.18
2019-03-17T09:11:26.727Z,17.18
2019-03-17T09:12:26.732Z,17.18
2019-03-17T09:13:26.732Z,17.18
2019-03-17T09:14:26.749Z,17.18
2019-03-17T09:15:26.739Z,17.28
2019-03-17T09:16:26.741Z,17.18
2019-03-17T09:17:26.741Z,17.18
2019-03-17T09:18:27.227Z,17.28
2019-03-17T09:19:26.749Z,17.28
2019-03-17T09:20:26.753Z,17.28
2019-03-17T09:21:26.754Z,17.18
2019-03-17T09:22:26.757Z,17.28
2019-03-17T09:23:26.761Z,17.18
2019-03-17T09:24:26.764Z,17.18
2019-03-17T09:25:26.768Z,17.08
2019-03-17T09:26:26.767Z,17.18
2019-03-17T09:27:26.774Z,17.18
2019-03-17T09:28:26.784Z,17.08
2019-03-17T09:29:26.776Z,17.08
2019-03-17T09:30:26.778Z,16.99
2019-03-17T09:31:26.783Z,17.08
2019-03-17T09:32:26.787Z,16.99
2019-03-17T09:33:26.786Z,17.08
2019-03-17T09:34:26.791Z,17.08
2019-03-17T09:35:26.795Z,17.08
2019-03-17T09:36:26.795Z,17.08
2019-03-17T09:37:26.799Z,16.99
2019-03-17T09:38:26.802Z,16.99
2019-03-17T09:39:26.805Z,16.99
2019-03-17T09:40:26.808Z,16.99
2019-03-17T09:41:26.810Z,16.99
2019-03-17T09:42:26.814Z,17.08
2019-03-17T09:43:26.817Z,16.99
2019-03-17T09:44:26.823Z,16.99
2019-03-17T09:45:26.823Z,16.99
2019-03-17T09:46:26.825Z,17.08
2019-03-17T09:47:26.829Z,16.99
2019-03-17T09:48:26.831Z,16.99
2019-03-17T09:49:26.833Z,17.08
2019-03-17T09:50:26.837Z,17.18
2019-03-17T09:51:26.839Z,17.08
2019-03-17T09:52:26.842Z,17.08
2019-03-17T09:53:28.616Z,17.18
2019-03-17T09:54:26.847Z,17.08
2019-03-17T09:55:26.851Z,17.18
2019-03-17T09:56:26.852Z,17.18
2019-03-17T09:57:26.860Z,17.08
2019-03-17T09:58:26.858Z,17.18
2019-03-17T09:59:26.861Z,17.18
2019-03-17T10:00:26.869Z,17.18
2019-03-17T10:01:26.866Z,17.18
2019-03-17T10:02:26.876Z,17.18
2019-03-17T10:03:26.878Z,17.18
2019-03-17T10:04:26.875Z,17.18
2019-03-17T10:05:26.878Z,17.18
2019-03-17T10:06:26.883Z,17.18
2019-03-17T10:07:26.888Z,17.18
2019-03-17T10:08:26.888Z,17.18
2019-03-17T10:09:26.889Z,17.18
2019-03-17T10:10:26.892Z,17.18
2019-03-17T10:11:26.895Z,17.18
2019-03-17T10:12:26.898Z,17.08
2019-03-17T10:13:26.902Z,17.28
2019-03-17T10:14:26.903Z,17.18
2019-03-17T10:15:26.906Z,17.18
2019-03-17T10:16:26.946Z,17.18
2019-03-17T10:17:26.912Z,17.18
2019-03-17T10:18:26.914Z,17.18
2019-03-17T10:19:26.918Z,17.18
2019-03-17T10:20:26.926Z,17.18
2019-03-17T10:21:26.922Z,17.08
2019-03-17T10:22:26.925Z,17.18
2019-03-17T10:23:26.934Z,17.18
2019-03-17T10:24:26.932Z,17.18
2019-03-17T10:25:26.933Z,17.18
2019-03-17T10:26:26.943Z,17.18
2019-03-17T10:27:26.940Z,17.18
2019-03-17T10:28:26.941Z,17.18
2019-03-17T10:29:26.944Z,17.18
2019-03-17T10:30:26.947Z,17.18
2019-03-17T10:31:26.960Z,17.18
2019-03-17T10:32:26.962Z,17.18
2019-03-17T10:33:26.963Z,17.18
2019-03-17T10:34:26.968Z,17.18
2019-03-17T10:35:26.965Z,17.08
2019-03-17T10:36:26.966Z,17.18
2019-03-17T10:37:26.967Z,17.18
2019-03-17T10:38:26.970Z,17.18
2019-03-17T10:39:26.978Z,17.18
2019-03-17T10:40:26.976Z,17.18
2019-03-17T10:41:26.978Z,17.18
2019-03-17T10:42:26.981Z,17.18
2019-03-17T10:43:26.984Z,17.18
2019-03-17T10:44:26.989Z,17.08
2019-03-17T10:45:26.994Z,17.18
2019-03-17T10:46:26.994Z,17.18
2019-03-17T10:47:26.996Z,17.18
2019-03-17T10:48:26.999Z,17.18
2019-03-17T10:49:27.001Z,17.18
2019-03-17T10:50:27.004Z,17.18
2019-03-17T10:51:27.007Z,17.18
2019-03-17T10:52:27.011Z,17.18
2019-03-17T10:53:27.012Z,17.18
2019-03-17T10:54:27.016Z,17.18
2019-03-17T10:55:27.018Z,17.28
2019-03-17T10:56:27.023Z,17.18
2019-03-17T10:57:27.040Z,17.18
2019-03-17T10:58:27.032Z,17.18
2019-03-17T10:59:27.853Z,17.18
2019-03-17T11:00:27.044Z,16.99
2019-03-17T11:01:27.035Z,17.18
2019-03-17T11:02:27.038Z,17.18
2019-03-17T11:03:27.046Z,17.08
2019-03-17T11:04:27.044Z,17.18
2019-03-17T11:05:27.045Z,17.18
2019-03-17T11:06:27.050Z,17.08
2019-03-17T11:07:27.052Z,17.18
2019-03-17T11:08:27.055Z,17.18
2019-03-17T11:09:27.057Z,17.08
2019-03-17T11:10:27.061Z,17.08
2019-03-17T11:11:27.066Z,17.08
2019-03-17T11:12:27.075Z,17.08
2019-03-17T11:13:27.068Z,16.99
2019-03-17T11:14:27.071Z,17.08
2019-03-17T11:15:27.075Z,17.08
2019-03-17T11:16:27.079Z,17.08
2019-03-17T11:17:27.083Z,17.08
2019-03-17T11:18:27.083Z,16.99
2019-03-17T11:19:27.086Z,17.18
2019-03-17T11:20:27.155Z,17.08
2019-03-17T11:21:27.090Z,17.08
2019-03-17T11:22:27.094Z,17.18
2019-03-17T11:23:27.097Z,17.18
2019-03-17T11:24:27.102Z,17.08
2019-03-17T11:25:27.103Z,16.99
2019-03-17T11:26:27.104Z,17.08
2019-03-17T11:27:27.116Z,17.08
2019-03-17T11:28:27.112Z,16.99
2019-03-17T11:29:27.118Z,16.99
2019-03-17T11:30:27.125Z,17.08
2019-03-17T11:31:27.120Z,17.08
2019-03-17T11:32:27.126Z,16.99
2019-03-17T11:33:27.129Z,16.99
2019-03-17T11:34:27.132Z,16.99
2019-03-17T11:35:27.131Z,17.08
2019-03-17T11:36:27.134Z,17.08
2019-03-17T11:37:27.136Z,17.08
2019-03-17T11:38:27.140Z,17.08
2019-03-17T11:39:37.357Z,17.18
2019-03-17T11:40:27.151Z,17.18
2019-03-17T11:41:27.148Z,17.18
2019-03-17T11:42:27.151Z,16.99
2019-03-17T11:43:27.154Z,17.28
2019-03-17T11:44:27.157Z,17.18
2019-03-17T11:45:27.159Z,17.18
2019-03-17T11:46:27.162Z,17.08
2019-03-17T11:47:27.165Z,17.18
2019-03-17T11:48:27.168Z,17.18
2019-03-17T11:49:27.170Z,17.18
2019-03-17T11:50:27.173Z,17.08
2019-03-17T11:51:27.176Z,17.08
2019-03-17T11:52:27.186Z,17.18
2019-03-17T11:53:27.181Z,17.18
2019-03-17T11:54:27.185Z,17.18
2019-03-17T11:55:27.190Z,17.08
2019-03-17T11:56:27.195Z,17.08
2019-03-17T11:57:27.193Z,17.08
2019-03-17T11:58:27.225Z,16.99
2019-03-17T11:59:27.199Z,17.08
2019-03-17T12:00:27.202Z,16.99
2019-03-17T12:01:27.206Z,16.99
2019-03-17T12:02:27.313Z,16.99
2019-03-17T12:03:27.208Z,16.99
2019-03-17T12:04:27.214Z,17.08
2019-03-17T12:05:27.216Z,16.99
2019-03-17T12:06:27.217Z,16.99
2019-03-17T12:07:27.227Z,16.89
2019-03-17T12:08:27.225Z,16.99
2019-03-17T12:09:29.318Z,17.08
2019-03-17T12:10:27.234Z,16.99
2019-03-17T12:11:27.256Z,16.89
2019-03-17T12:12:27.235Z,16.99
2019-03-17T12:13:27.239Z,17.08
2019-03-17T12:14:27.243Z,17.08
2019-03-17T12:15:27.248Z,16.99
2019-03-17T12:16:27.247Z,16.89
2019-03-17T12:17:27.256Z,16.79
2019-03-17T12:18:27.253Z,16.99
2019-03-17T12:19:27.261Z,16.99
2019-03-17T12:20:27.263Z,16.99
2019-03-17T12:21:27.264Z,16.99
2019-03-17T12:22:27.266Z,16.89
2019-03-17T12:23:27.269Z,17.08
2019-03-17T12:24:27.269Z,16.89
2019-03-17T12:25:27.273Z,16.99
2019-03-17T12:26:27.278Z,16.89
2019-03-17T12:27:27.279Z,16.89
2019-03-17T12:28:27.282Z,16.99
2019-03-17T12:29:27.289Z,16.99
2019-03-17T12:30:27.287Z,16.99
2019-03-17T12:31:27.290Z,16.89
2019-03-17T12:32:27.291Z,16.89
2019-03-17T12:33:27.296Z,16.99
2019-03-17T12:34:28.424Z,16.99
2019-03-17T12:35:27.302Z,16.99
2019-03-17T12:36:27.306Z,16.99
2019-03-17T12:37:27.310Z,16.99
2019-03-17T12:38:27.314Z,16.69
2019-03-17T12:39:27.313Z,16.89
2019-03-17T12:40:27.320Z,16.79
2019-03-17T12:41:27.318Z,16.79
2019-03-17T12:42:27.330Z,16.79
2019-03-17T12:43:27.328Z,16.69
2019-03-17T12:44:27.327Z,16.69
2019-03-17T12:45:27.332Z,16.79
2019-03-17T12:46:27.403Z,16.69
2019-03-17T12:47:27.340Z,16.79
2019-03-17T12:48:27.339Z,16.79
2019-03-17T12:49:27.342Z,16.60
2019-03-17T12:50:27.351Z,16.89
2019-03-17T12:51:27.349Z,16.79
2019-03-17T12:52:27.350Z,16.79